Time;durP1;ratioP1;P1;durP2;ratioP2;P2;SDS_P1;SDS_P2;PMS_P1;PMS_P2;Temp;Humidity;BMP_temperature;BMP_pressure;BME280_temperature;BME280_humidity;BME280_pressure;Samples;Min_cycle;Max_cycle;Signal;HPM_P1;HPM_P2
2022/09/15 00:00:16;;;;;;;9.93;1.85;;;24.30;99.90;;;;;;5037943;28;20041;-75
2022/09/15 00:02:42;;;;;;;5.95;1.80;;;24.40;99.90;;;;;;5036032;28;20102;-74
2022/09/15 00:05:09;;;;;;;7.43;2.15;;;24.40;99.90;;;;;;5045414;28;20034;-76
2022/09/15 00:07:35;;;;;;;9.20;1.98;;;24.40;99.90;;;;;;5033317;28;20091;-75
2022/09/15 00:10:02;;;;;;;6.32;1.80;;;24.40;99.90;;;;;;5037457;28;20041;-74
2022/09/15 00:12:28;;;;;;;4.63;1.90;;;24.30;99.90;;;;;;5038390;28;20056;-75
2022/09/15 00:14:53;;;;;;;5.00;1.77;;;24.30;99.90;;;;;;5034659;28;20061;-74
2022/09/15 00:17:19;;;;;;;6.63;2.25;;;24.30;99.90;;;;;;5035972;28;20048;-74
2022/09/15 00:19:45;;;;;;;4.97;1.80;;;24.30;99.90;;;;;;5037742;28;20103;-75
2022/09/15 00:22:11;;;;;;;5.22;2.00;;;24.30;99.90;;;;;;5043369;28;20035;-74
2022/09/15 00:24:37;;;;;;;9.98;2.08;;;24.30;99.90;;;;;;5037764;28;20041;-75
2022/09/15 00:27:04;;;;;;;5.50;1.95;;;24.30;99.90;;;;;;5032997;28;20033;-75
2022/09/15 00:29:30;;;;;;;6.53;2.00;;;24.30;99.90;;;;;;5036191;28;20113;-74
2022/09/15 00:31:56;;;;;;;6.85;1.80;;;24.30;99.90;;;;;;5035428;28;20569;-74
2022/09/15 00:34:23;;;;;;;7.22;2.10;;;24.30;99.90;;;;;;5039176;28;20041;-74
2022/09/15 00:36:49;;;;;;;6.18;1.70;;;24.30;99.90;;;;;;5038285;28;20026;-75
2022/09/15 00:39:14;;;;;;;5.57;2.10;;;24.30;99.90;;;;;;5037050;28;20107;-75
2022/09/15 00:41:40;;;;;;;6.03;2.05;;;24.30;99.90;;;;;;5036651;28;20036;-75
2022/09/15 00:44:35;;;;;;;5.43;1.55;;;24.40;99.90;;;;;;5037262;28;20037;-74
2022/09/15 00:47:03;;;;;;;5.65;1.70;;;24.40;99.90;;;;;;5031723;28;20025;-75
2022/09/15 00:49:35;;;;;;;7.30;1.77;;;24.30;99.90;;;;;;5035892;28;20124;-74
2022/09/15 00:52:19;;;;;;;3.92;1.70;;;24.20;99.90;;;;;;5034372;28;20033;-75
2022/09/15 00:55:00;;;;;;;6.40;1.80;;;24.10;99.90;;;;;;5037684;28;20038;-74
2022/09/15 00:57:38;;;;;;;4.82;1.60;;;24.20;99.90;;;;;;5038341;28;21022;-75
2022/09/15 01:00:08;;;;;;;3.45;1.42;;;24.20;99.90;;;;;;5031991;28;20033;-76
2022/09/15 01:02:36;;;;;;;4.20;1.52;;;24.10;99.90;;;;;;5035386;28;20041;-75
2022/09/15 01:05:06;;;;;;;7.50;1.65;;;24.20;99.90;;;;;;5045200;28;20557;-76
2022/09/15 01:07:50;;;;;;;5.75;1.80;;;24.20;99.90;;;;;;5039540;28;20029;-76
2022/09/15 01:10:24;;;;;;;5.93;1.80;;;24.10;99.90;;;;;;5038848;28;20036;-75
2022/09/15 01:13:00;;;;;;;6.40;1.50;;;24.00;99.90;;;;;;5040329;28;20033;-75
2022/09/15 01:15:38;;;;;;;5.13;1.60;;;23.90;99.90;;;;;;5041274;28;20108;-76
2022/09/15 01:18:43;;;;;;;7.43;2.58;;;23.70;99.90;;;;;;5039350;28;20160;-75
2022/09/15 01:21:33;;;;;;;4.65;1.63;;;23.40;99.90;;;;;;5032483;28;20049;-75
2022/09/15 01:24:21;;;;;;;4.78;2.03;;;23.20;99.90;;;;;;5034699;28;20095;-75
2022/09/15 01:26:57;;;;;;;7.28;2.25;;;23.10;99.90;;;;;;5031172;28;20037;-75
2022/09/15 01:29:26;;;;;;;8.95;2.20;;;23.20;99.90;;;;;;5031628;28;20041;-75
2022/09/15 01:35:14;;;;;;;7.88;2.30;;;23.10;99.90;;;;;;5031405;28;20068;-74
2022/09/15 01:37:54;;;;;;;6.70;2.15;;;23.10;99.90;;;;;;5033124;28;20688;-74
2022/09/15 01:40:23;;;;;;;4.45;2.03;;;23.10;99.90;;;;;;5033100;28;20041;-75
2022/09/15 01:42:51;;;;;;;10.93;2.60;;;22.90;99.90;;;;;;5038560;28;20030;-75
2022/09/15 01:45:28;;;;;;;6.70;2.58;;;23.00;99.90;;;;;;5037595;28;20021;-74
2022/09/15 01:47:57;;;;;;;7.90;2.20;;;23.00;99.90;;;;;;5038020;28;20511;-76
2022/09/15 01:50:32;;;;;;;7.05;2.53;;;23.10;99.90;;;;;;5031640;28;20045;-76
2022/09/15 01:53:01;;;;;;;7.00;2.17;;;23.10;99.90;;;;;;5038258;28;20025;-76
2022/09/15 01:56:08;;;;;;;7.97;2.40;;;23.00;99.90;;;;;;5036702;28;20029;-75
2022/09/15 01:58:36;;;;;;;9.30;2.53;;;22.90;99.90;;;;;;5032922;28;20026;-75
2022/09/15 02:01:19;;;;;;;10.95;2.17;;;23.00;99.90;;;;;;5036105;28;20033;-75
2022/09/15 02:03:57;;;;;;;7.07;2.17;;;22.80;99.90;;;;;;5032535;28;20068;-74
2022/09/15 02:06:38;;;;;;;6.75;2.28;;;22.80;99.90;;;;;;5030987;28;20041;-74
2022/09/15 02:09:21;;;;;;;7.55;2.42;;;22.80;99.90;;;;;;5035106;28;20064;-75
2022/09/15 02:12:01;;;;;;;7.32;2.45;;;22.80;99.90;;;;;;5041120;28;20104;-75
2022/09/15 02:14:32;;;;;;;6.70;2.15;;;22.60;99.90;;;;;;5038795;28;20036;-76
2022/09/15 02:17:00;;;;;;;6.15;2.20;;;22.60;99.90;;;;;;5043588;28;20029;-76
2022/09/15 02:19:40;;;;;;;7.05;2.33;;;22.60;99.90;;;;;;5035155;28;20036;-76
2022/09/15 02:22:16;;;;;;;8.80;2.33;;;22.60;99.90;;;;;;5039674;28;20033;-75
2022/09/15 02:25:06;;;;;;;6.25;2.00;;;22.50;99.90;;;;;;5040064;28;20033;-75
2022/09/15 02:27:43;;;;;;;6.32;2.15;;;22.40;99.90;;;;;;5037276;28;20041;-76
2022/09/15 02:30:13;;;;;;;7.38;2.28;;;22.30;99.90;;;;;;5044218;28;20053;-74
2022/09/15 02:32:47;;;;;;;8.50;3.03;;;22.20;99.90;;;;;;5039050;28;20515;-75
2022/09/15 02:35:15;;;;;;;7.30;2.25;;;22.20;99.90;;;;;;5041248;28;20091;-76
2022/09/15 02:37:42;;;;;;;7.78;2.30;;;22.00;99.90;;;;;;5048410;28;20038;-75
2022/09/15 02:40:09;;;;;;;6.38;2.38;;;22.10;99.90;;;;;;5042284;28;20033;-74
2022/09/15 02:42:35;;;;;;;5.15;2.13;;;22.20;99.90;;;;;;5047315;28;20034;-75
2022/09/15 02:45:01;;;;;;;5.55;2.17;;;22.00;99.90;;;;;;5041162;28;20041;-75
2022/09/15 02:47:28;;;;;;;9.13;1.90;;;21.90;99.90;;;;;;5043617;28;20307;-75
2022/09/15 02:49:55;;;;;;;9.63;2.35;;;21.90;99.90;;;;;;5050129;28;20030;-75
2022/09/15 02:52:21;;;;;;;4.78;1.90;;;21.80;99.90;;;;;;5044609;28;20441;-76
2022/09/15 02:54:47;;;;;;;8.75;2.33;;;21.90;99.90;;;;;;5041298;28;20060;-75
2022/09/15 02:57:13;;;;;;;5.95;2.08;;;21.90;99.90;;;;;;5038087;28;20040;-74
2022/09/15 03:02:24;;;;;;;7.93;2.00;;;21.80;99.90;;;;;;5036583;28;20553;-74
2022/09/15 03:04:50;;;;;;;5.55;2.30;;;21.80;99.90;;;;;;5036431;28;20034;-74
2022/09/15 03:07:19;;;;;;;4.47;1.80;;;21.70;99.90;;;;;;5038920;28;20041;-75
2022/09/15 03:09:45;;;;;;;7.97;1.90;;;21.90;99.90;;;;;;5037802;28;20079;-74
2022/09/15 03:12:11;;;;;;;11.05;1.92;;;21.80;99.90;;;;;;5043733;28;20044;-77
2022/09/15 03:14:37;;;;;;;4.40;1.50;;;21.90;99.90;;;;;;5036120;28;20473;-75
2022/09/15 03:17:03;;;;;;;6.38;1.70;;;21.90;99.90;;;;;;5037584;28;20121;-76
2022/09/15 03:19:29;;;;;;;7.20;1.73;;;21.90;99.90;;;;;;5042260;28;20033;-75
2022/09/15 03:21:55;;;;;;;5.65;1.60;;;22.00;99.90;;;;;;5040227;28;20025;-75
2022/09/15 03:24:22;;;;;;;6.25;1.80;;;22.00;99.90;;;;;;5044712;28;20060;-76
2022/09/15 03:26:48;;;;;;;7.53;1.98;;;22.00;99.90;;;;;;5045833;28;20056;-75
2022/09/15 03:29:15;;;;;;;6.03;1.70;;;22.00;99.90;;;;;;5037301;28;20034;-75
2022/09/15 03:31:43;;;;;;;5.80;1.83;;;22.10;99.90;;;;;;5038681;28;20037;-74
2022/09/15 03:34:08;;;;;;;3.45;1.48;;;22.10;99.90;;;;;;5041145;28;20068;-75
2022/09/15 03:36:35;;;;;;;4.47;1.55;;;22.30;99.90;;;;;;5040446;28;20057;-75
2022/09/15 03:39:00;;;;;;;6.20;1.88;;;22.30;99.90;;;;;;5037435;28;20142;-75
2022/09/15 03:41:27;;;;;;;5.65;1.65;;;22.30;99.90;;;;;;5037575;28;20053;-75
2022/09/15 03:43:53;;;;;;;4.03;1.60;;;22.40;99.90;;;;;;5036363;28;20079;-75
2022/09/15 03:46:19;;;;;;;7.25;1.95;;;22.20;99.90;;;;;;5031762;28;20057;-75
2022/09/15 03:48:46;;;;;;;6.35;1.73;;;22.10;99.90;;;;;;5041048;28;20040;-75
2022/09/15 03:51:12;;;;;;;6.15;1.65;;;22.00;99.90;;;;;;5034480;28;20097;-75
2022/09/15 03:53:40;;;;;;;7.15;1.95;;;22.00;99.90;;;;;;5043339;28;20525;-75
2022/09/15 03:56:30;;;;;;;6.43;1.70;;;22.00;99.90;;;;;;5036116;28;20105;-75
2022/09/15 03:58:56;;;;;;;4.68;2.10;;;21.90;99.90;;;;;;5037998;28;20029;-75
2022/09/15 04:01:22;;;;;;;6.28;1.75;;;21.90;99.90;;;;;;5040502;28;21745;-73
2022/09/15 04:03:49;;;;;;;4.32;1.90;;;22.00;99.90;;;;;;5037264;28;20476;-75
2022/09/15 04:06:15;;;;;;;4.07;1.70;;;22.00;99.90;;;;;;5042300;28;20029;-74
2022/09/15 04:08:41;;;;;;;4.45;1.60;;;22.20;99.90;;;;;;5039434;28;20032;-75
2022/09/15 04:11:10;;;;;;;6.05;2.05;;;22.10;99.90;;;;;;5035015;28;20064;-75
2022/09/15 04:13:38;;;;;;;4.93;2.20;;;22.20;99.90;;;;;;5037869;28;20132;-75
2022/09/15 04:16:06;;;;;;;5.38;2.05;;;22.00;99.90;;;;;;5038375;28;20030;-75
2022/09/15 04:18:33;;;;;;;7.82;1.95;;;22.00;99.90;;;;;;5038203;28;20443;-75
2022/09/15 04:21:07;;;;;;;7.25;1.95;;;21.90;99.90;;;;;;5038157;28;20112;-77
2022/09/15 04:23:33;;;;;;;6.88;2.10;;;21.80;99.90;;;;;;5037233;28;20559;-76
2022/09/15 04:26:06;;;;;;;5.18;1.85;;;21.80;99.90;;;;;;5042130;28;20033;-75
2022/09/15 04:28:34;;;;;;;6.32;2.03;;;21.90;99.90;;;;;;5039427;28;20083;-75
2022/09/15 04:31:06;;;;;;;7.22;2.03;;;21.90;99.90;;;;;;5044976;28;20037;-76
2022/09/15 04:33:32;;;;;;;5.68;1.90;;;21.80;99.90;;;;;;5035695;28;20689;-75
2022/09/15 04:36:03;;;;;;;8.48;1.85;;;21.80;99.90;;;;;;5052640;28;20112;-75
2022/09/15 04:38:30;;;;;;;5.65;1.40;;;21.90;99.90;;;;;;5039284;28;20030;-76
2022/09/15 04:40:56;;;;;;;4.32;1.42;;;21.90;99.90;;;;;;5037298;28;20408;-75
2022/09/15 04:43:22;;;;;;;5.63;1.75;;;22.00;99.90;;;;;;5038255;28;20040;-76
2022/09/15 04:45:48;;;;;;;6.68;1.50;;;22.00;99.90;;;;;;5037284;28;20040;-75
2022/09/15 04:48:15;;;;;;;6.82;1.75;;;22.00;99.90;;;;;;5034222;28;20041;-75
2022/09/15 04:50:41;;;;;;;6.60;1.88;;;22.10;99.90;;;;;;5039745;28;20038;-75
2022/09/15 04:53:07;;;;;;;5.07;1.35;;;22.10;99.90;;;;;;5034274;28;20025;-77
2022/09/15 04:55:34;;;;;;;4.85;1.35;;;22.10;99.90;;;;;;5040313;28;20033;-75
2022/09/15 04:58:04;;;;;;;5.97;1.40;;;22.10;99.90;;;;;;5042847;28;20033;-75
2022/09/15 05:00:33;;;;;;;5.47;1.75;;;22.00;99.90;;;;;;5030852;28;20040;-75
2022/09/15 05:02:59;;;;;;;6.10;1.67;;;22.00;99.90;;;;;;5034352;28;20044;-76
2022/09/15 05:05:25;;;;;;;4.45;1.60;;;22.00;99.90;;;;;;5033197;28;20065;-76
2022/09/15 05:07:52;;;;;;;5.63;1.50;;;22.10;99.90;;;;;;5038243;28;20044;-76
2022/09/15 05:10:18;;;;;;;6.65;2.22;;;22.10;99.90;;;;;;5037308;28;20033;-76
2022/09/15 05:12:45;;;;;;;4.22;1.70;;;22.30;99.90;;;;;;5036117;28;20056;-74
2022/09/15 05:15:11;;;;;;;4.15;1.50;;;22.30;99.90;;;;;;5034879;28;20104;-75
2022/09/15 05:17:37;;;;;;;6.03;1.55;;;22.30;99.90;;;;;;5043617;28;20093;-75
2022/09/15 05:20:04;;;;;;;4.80;1.85;;;22.30;99.90;;;;;;5031612;28;20076;-75
2022/09/15 05:22:30;;;;;;;6.53;1.80;;;22.30;99.90;;;;;;5037968;28;20061;-75
2022/09/15 05:24:56;;;;;;;7.45;1.80;;;22.30;99.90;;;;;;5041133;28;20037;-75
2022/09/15 05:27:22;;;;;;;5.72;1.70;;;22.30;99.90;;;;;;5035540;28;20029;-74
2022/09/15 05:29:48;;;;;;;6.53;2.25;;;22.30;99.90;;;;;;5039388;28;20040;-75
2022/09/15 05:32:14;;;;;;;7.03;2.00;;;22.40;99.90;;;;;;5038050;28;20030;-75
2022/09/15 05:34:39;;;;;;;6.30;1.80;;;22.40;99.90;;;;;;5039015;28;20037;-75
2022/09/15 05:37:05;;;;;;;6.35;2.13;;;22.50;99.90;;;;;;5033616;28;20063;-74
2022/09/15 05:39:31;;;;;;;10.45;2.33;;;22.50;99.90;;;;;;5035812;28;20484;-74
2022/09/15 05:41:58;;;;;;;4.97;1.73;;;22.40;99.90;;;;;;5036234;28;20033;-75
2022/09/15 05:44:25;;;;;;;6.47;1.58;;;22.40;99.90;;;;;;5033423;28;20036;-78
2022/09/15 05:46:51;;;;;;;6.07;1.60;;;22.40;99.90;;;;;;5034798;28;20112;-75
2022/09/15 05:49:16;;;;;;;3.42;1.60;;;22.40;99.90;;;;;;5032360;28;20029;-75
2022/09/15 05:51:42;;;;;;;6.45;1.83;;;22.40;99.90;;;;;;5034778;28;20028;-75
2022/09/15 05:54:08;;;;;;;3.20;1.45;;;22.40;99.90;;;;;;5033506;28;20025;-75
2022/09/15 05:56:34;;;;;;;7.05;2.00;;;22.40;99.90;;;;;;5039223;28;20488;-75
2022/09/15 05:59:00;;;;;;;6.07;2.00;;;22.40;99.90;;;;;;5025504;28;20030;-74
2022/09/15 06:01:28;;;;;;;3.42;1.58;;;22.50;99.90;;;;;;5035886;28;20097;-74
2022/09/15 06:03:56;;;;;;;3.92;1.70;;;22.50;99.90;;;;;;5035159;28;20705;-75
2022/09/15 06:06:24;;;;;;;6.30;1.88;;;22.50;99.90;;;;;;5031337;28;20038;-74
2022/09/15 06:08:54;;;;;;;5.70;1.83;;;22.50;99.90;;;;;;5033819;28;20072;-75
2022/09/15 06:11:22;;;;;;;5.18;2.00;;;22.50;99.90;;;;;;5037958;28;20037;-75
2022/09/15 06:13:48;;;;;;;9.45;2.42;;;22.50;99.90;;;;;;5039204;28;20492;-75
2022/09/15 06:16:21;;;;;;;6.75;2.22;;;22.60;99.90;;;;;;5035929;28;20044;-76
2022/09/15 06:18:48;;;;;;;9.95;2.90;;;22.70;99.90;;;;;;5038493;28;20040;-75
2022/09/15 06:21:22;;;;;;;7.82;2.17;;;22.70;99.90;;;;;;5039207;28;20041;-75
2022/09/15 06:23:56;;;;;;;5.95;2.53;;;22.80;99.90;;;;;;5038703;28;20041;-75
2022/09/15 06:26:23;;;;;;;7.90;2.60;;;22.90;99.90;;;;;;5029665;28;20908;-75
2022/09/15 06:28:56;;;;;;;6.88;3.00;;;22.90;99.90;;;;;;5035316;28;20040;-76
2022/09/15 06:31:23;;;;;;;10.35;2.50;;;22.90;99.90;;;;;;5032392;28;20496;-75
2022/09/15 06:33:51;;;;;;;9.68;2.70;;;23.00;99.90;;;;;;5035167;28;20103;-74
2022/09/15 06:36:18;;;;;;;6.78;2.55;;;23.00;99.90;;;;;;5030546;28;20029;-76
2022/09/15 06:38:44;;;;;;;9.05;2.30;;;23.10;99.90;;;;;;5035352;28;20083;-75
2022/09/15 06:41:11;;;;;;;4.78;2.17;;;23.10;99.90;;;;;;5034686;28;20140;-75
2022/09/15 06:43:37;;;;;;;13.07;2.67;;;23.20;99.90;;;;;;5028896;28;20584;-75
2022/09/15 06:46:12;;;;;;;7.10;2.20;;;23.30;99.90;;;;;;5021568;28;20091;-74
2022/09/15 06:48:38;;;;;;;7.18;2.20;;;23.40;99.90;;;;;;5032852;28;20041;-74
2022/09/15 06:51:06;;;;;;;9.98;2.47;;;23.40;99.90;;;;;;5031859;28;20125;-74
2022/09/15 06:53:33;;;;;;;8.45;2.45;;;23.50;99.90;;;;;;5027682;28;20567;-74
2022/09/15 06:56:13;;;;;;;7.60;2.67;;;23.60;99.90;;;;;;5035417;28;20116;-76
2022/09/15 06:58:40;;;;;;;6.43;2.20;;;23.70;99.90;;;;;;5029767;28;20033;-75
2022/09/15 07:01:09;;;;;;;7.90;2.58;;;23.70;99.90;;;;;;5028468;28;20041;-75
2022/09/15 07:03:36;;;;;;;6.60;2.67;;;23.80;99.90;;;;;;5040448;28;20362;-75
2022/09/15 07:06:03;;;;;;;8.43;2.30;;;23.90;99.90;;;;;;5040423;28;20033;-75
2022/09/15 07:08:29;;;;;;;8.20;2.65;;;23.90;99.90;;;;;;5040284;28;20100;-75
2022/09/15 07:10:56;;;;;;;8.25;2.60;;;24.00;99.90;;;;;;5039006;28;20361;-75
2022/09/15 07:13:23;;;;;;;7.50;2.20;;;24.10;99.90;;;;;;5038042;28;20029;-75
2022/09/15 07:15:57;;;;;;;7.35;2.22;;;24.10;99.90;;;;;;5046516;28;20403;-76
2022/09/15 07:18:24;;;;;;;10.38;2.50;;;24.20;99.90;;;;;;5046143;28;20041;-74
2022/09/15 07:20:50;;;;;;;8.65;2.35;;;24.30;99.90;;;;;;5041408;28;20128;-75
2022/09/15 07:23:17;;;;;;;6.68;2.10;;;24.40;99.90;;;;;;5038959;28;20033;-76
2022/09/15 07:25:43;;;;;;;8.40;2.42;;;24.50;99.90;;;;;;5038226;28;20040;-76
2022/09/15 07:28:16;;;;;;;8.65;2.58;;;24.50;99.90;;;;;;5042067;28;20409;-75
2022/09/15 07:30:42;;;;;;;8.38;2.15;;;24.60;99.90;;;;;;5038334;28;20037;-75
2022/09/15 07:33:11;;;;;;;6.03;1.75;;;24.70;99.90;;;;;;5038555;28;20098;-75
2022/09/15 07:35:44;;;;;;;6.97;2.15;;;24.70;99.90;;;;;;5040190;28;20395;-75
2022/09/15 07:38:10;;;;;;;8.15;2.30;;;24.80;99.90;;;;;;5037705;28;20608;-76
2022/09/15 07:40:37;;;;;;;8.23;2.38;;;24.90;99.90;;;;;;5046669;28;20053;-75
2022/09/15 07:43:03;;;;;;;13.57;2.08;;;25.00;99.90;;;;;;5039402;28;20041;-75
2022/09/15 07:45:30;;;;;;;7.50;2.20;;;25.00;99.90;;;;;;5040420;28;20087;-76
2022/09/15 07:47:56;;;;;;;7.60;2.28;;;25.00;99.90;;;;;;5039677;28;20033;-75
2022/09/15 07:50:22;;;;;;;7.88;2.33;;;25.00;99.90;;;;;;5036672;28;20025;-76
2022/09/15 07:52:47;;;;;;;9.55;2.78;;;25.10;99.90;;;;;;5045128;28;20075;-76
2022/09/15 07:55:13;;;;;;;7.82;2.42;;;25.20;99.90;;;;;;5037782;28;20025;-76
2022/09/15 07:57:39;;;;;;;11.13;2.70;;;25.20;99.90;;;;;;5040482;28;20029;-76
2022/09/15 08:00:06;;;;;;;6.80;2.58;;;25.30;99.90;;;;;;5041894;28;20107;-76
2022/09/15 08:02:32;;;;;;;8.18;2.30;;;25.40;99.90;;;;;;5036024;28;20037;-76
2022/09/15 08:04:57;;;;;;;5.65;2.38;;;25.50;99.90;;;;;;5039662;28;20029;-75
2022/09/15 08:07:23;;;;;;;11.43;2.78;;;25.60;99.90;;;;;;5037128;28;20034;-75
2022/09/15 08:09:49;;;;;;;9.77;2.47;;;25.60;99.90;;;;;;5038161;28;20104;-74
2022/09/15 08:12:15;;;;;;;9.23;2.10;;;25.60;99.90;;;;;;5036628;28;20049;-75
2022/09/15 08:14:41;;;;;;;8.50;2.53;;;25.60;99.90;;;;;;5044382;28;20029;-76
2022/09/15 08:17:07;;;;;;;9.05;2.65;;;25.70;99.90;;;;;;5036996;28;20859;-75
2022/09/15 08:19:34;;;;;;;9.40;2.08;;;25.80;99.90;;;;;;5033886;28;20076;-75
2022/09/15 08:22:01;;;;;;;9.77;2.33;;;25.90;99.90;;;;;;5040335;28;20022;-75
2022/09/15 08:24:28;;;;;;;9.73;2.40;;;26.10;99.90;;;;;;5036077;28;20040;-76
2022/09/15 08:26:54;;;;;;;27.08;3.55;;;27.70;99.90;;;;;;5039633;28;20031;-75
2022/09/15 08:29:20;;;;;;;15.93;3.25;;;29.50;99.90;;;;;;5037815;28;20045;-75
2022/09/15 08:31:46;;;;;;;9.15;2.22;;;30.60;99.90;;;;;;5044148;28;20111;-75
2022/09/15 08:34:13;;;;;;;46.60;5.38;;;31.40;99.90;;;;;;5041791;28;20377;-75
2022/09/15 08:36:40;;;;;;;17.27;2.85;;;31.70;99.90;;;;;;5036548;28;20476;-76
2022/09/15 08:39:06;;;;;;;8.35;2.33;;;32.30;99.90;;;;;;5035706;28;20067;-75
2022/09/15 08:41:44;;;;;;;10.05;2.25;;;32.60;99.90;;;;;;5041294;28;20125;-76
2022/09/15 08:44:43;;;;;;;8.93;2.33;;;33.00;99.90;;;;;;5027647;28;20721;-75
2022/09/15 08:47:22;;;;;;;8.50;2.45;;;33.30;99.60;;;;;;5035803;28;20543;-76
2022/09/15 08:50:03;;;;;;;9.57;2.30;;;33.80;98.90;;;;;;5034481;28;20029;-74
2022/09/15 08:52:39;;;;;;;6.03;1.90;;;34.00;98.70;;;;;;5038803;28;20051;-75
2022/09/15 08:55:47;;;;;;;10.82;2.30;;;34.30;98.70;;;;;;5042376;28;20254;-76
2022/09/15 08:58:21;;;;;;;21.30;4.40;;;34.80;98.40;;;;;;5018269;28;20089;-75
2022/09/15 09:00:51;;;;;;;10.82;2.50;;;34.90;97.90;;;;;;5038419;28;20033;-75
2022/09/15 09:03:29;;;;;;;13.32;3.17;;;35.10;98.30;;;;;;5044044;28;20036;-76
2022/09/15 09:06:19;;;;;;;13.07;2.80;;;35.40;97.70;;;;;;5033950;28;20095;-76
2022/09/15 09:09:09;;;;;;;6.07;1.92;;;35.60;97.30;;;;;;5040643;28;20037;-75
2022/09/15 09:12:02;;;;;;;11.63;2.50;;;35.90;97.00;;;;;;5038196;28;20044;-75
2022/09/15 09:14:50;;;;;;;14.32;2.80;;;36.20;96.80;;;;;;5037531;28;20025;-75
2022/09/15 09:17:47;;;;;;;10.82;2.60;;;36.20;96.40;;;;;;5044109;28;20037;-75
2022/09/15 09:20:23;;;;;;;13.27;2.10;;;36.20;96.10;;;;;;5043024;28;20117;-76
2022/09/15 09:22:52;;;;;;;8.07;2.40;;;36.20;96.00;;;;;;5034162;28;20091;-75
2022/09/15 09:25:20;;;;;;;7.95;2.30;;;35.60;96.30;;;;;;5032815;28;20033;-75
2022/09/15 09:27:47;;;;;;;11.27;2.55;;;35.20;96.80;;;;;;5039554;28;20040;-76
2022/09/15 09:30:20;;;;;;;13.43;2.55;;;35.00;96.70;;;;;;5042202;28;20362;-75
2022/09/15 09:33:03;;;;;;;14.15;2.92;;;34.60;96.80;;;;;;5041396;28;20539;-75
2022/09/15 09:35:45;;;;;;;13.25;2.80;;;34.80;97.00;;;;;;5036699;28;20029;-75
2022/09/15 09:38:18;;;;;;;8.93;2.42;;;34.90;96.90;;;;;;5035927;28;20065;-76
2022/09/15 09:40:44;;;;;;;8.23;2.60;;;35.20;96.40;;;;;;5038126;28;20033;-76
2022/09/15 09:43:10;;;;;;;9.45;2.55;;;35.50;96.00;;;;;;5034866;28;20064;-76
2022/09/15 09:45:36;;;;;;;12.07;2.70;;;34.80;96.70;;;;;;5033691;28;20034;-75
2022/09/15 09:48:14;;;;;;;10.73;2.33;;;34.20;97.30;;;;;;5033617;28;20044;-75
2022/09/15 09:50:43;;;;;;;8.90;2.55;;;34.60;97.30;;;;;;5037050;28;20037;-75
2022/09/15 09:53:25;;;;;;;9.07;2.50;;;34.70;97.00;;;;;;5034913;28;20036;-76
2022/09/15 09:56:13;;;;;;;8.07;2.08;;;34.70;96.90;;;;;;5034376;28;20045;-75
2022/09/15 09:58:38;;;;;;;8.27;1.85;;;34.20;97.40;;;;;;5025454;28;20543;-75
2022/09/15 10:01:19;;;;;;;9.43;2.40;;;32.60;98.60;;;;;;5037768;28;20064;-74
2022/09/15 10:03:46;;;;;;;7.13;2.40;;;32.10;99.90;;;;;;5036051;28;20044;-76
2022/09/15 10:06:21;;;;;;;9.00;2.47;;;31.30;99.90;;;;;;5037038;28;20052;-76
2022/09/15 10:08:53;;;;;;;9.13;2.20;;;31.00;99.90;;;;;;5036690;28;20033;-75
2022/09/15 10:11:19;;;;;;;7.47;2.60;;;30.60;99.90;;;;;;5034318;28;20512;-74
2022/09/15 10:13:53;;;;;;;7.63;2.33;;;30.70;99.90;;;;;;5037132;28;20033;-74
2022/09/15 10:16:20;;;;;;;8.63;2.55;;;31.00;99.90;;;;;;5037751;28;20037;-77
2022/09/15 10:18:49;;;;;;;8.85;2.30;;;31.50;99.90;;;;;;5038067;28;20048;-75
2022/09/15 10:21:21;;;;;;;6.32;2.05;;;31.80;99.90;;;;;;5035336;28;20045;-75
2022/09/15 10:23:47;;;;;;;8.18;1.90;;;31.60;99.90;;;;;;5036849;28;20041;-76
2022/09/15 10:26:31;;;;;;;7.80;2.40;;;31.90;99.90;;;;;;5034969;28;20032;-74
2022/09/15 10:29:36;;;;;;;7.32;2.00;;;32.10;99.90;;;;;;5038056;28;20030;-76
2022/09/15 10:32:15;;;;;;;7.20;1.65;;;32.20;99.90;;;;;;5016601;28;20037;-75
2022/09/15 10:34:42;;;;;;;8.07;2.70;;;32.40;99.90;;;;;;5031520;28;20044;-76
2022/09/15 10:37:24;;;;;;;8.57;2.40;;;32.20;99.90;;;;;;5035229;28;20038;-76
2022/09/15 10:39:55;;;;;;;8.95;2.38;;;32.60;99.90;;;;;;5040260;28;20037;-75
2022/09/15 10:42:49;;;;;;;9.68;2.78;;;32.10;99.90;;;;;;5039961;28;20033;-76
2022/09/15 10:45:30;;;;;;;5.05;1.90;;;32.20;99.90;;;;;;5041487;28;20033;-76
2022/09/15 10:48:27;;;;;;;8.63;2.05;;;32.50;99.90;;;;;;5045827;28;20055;-75
2022/09/15 10:51:21;;;;;;;12.02;2.72;;;32.60;99.90;;;;;;5031764;28;20026;-77
2022/09/15 10:53:53;;;;;;;7.55;2.38;;;32.50;99.90;;;;;;5016779;28;20420;-75
2022/09/15 10:56:26;;;;;;;7.18;2.20;;;33.00;99.90;;;;;;5031672;28;20045;-75
2022/09/15 10:59:02;;;;;;;9.00;2.40;;;33.30;99.20;;;;;;5037102;28;20052;-76
2022/09/15 11:01:30;;;;;;;8.75;2.20;;;33.60;99.00;;;;;;5040419;28;20040;-75
2022/09/15 11:04:21;;;;;;;8.70;2.05;;;33.60;99.30;;;;;;5038066;28;20057;-76
2022/09/15 11:06:56;;;;;;;6.33;2.10;;;33.70;99.80;;;;;;5036475;28;20026;-76
2022/09/15 11:09:33;;;;;;;7.70;2.10;;;33.90;99.10;;;;;;5039093;28;20305;-75
2022/09/15 11:12:29;;;;;;;6.43;2.15;;;33.90;99.20;;;;;;5041248;28;20033;-76
2022/09/15 11:15:14;;;;;;;8.15;2.00;;;33.90;97.40;;;;;;5038076;28;20021;-75
2022/09/15 11:17:47;;;;;;;5.70;2.00;;;34.40;98.20;;;;;;5037905;28;20074;-75
2022/09/15 11:20:30;;;;;;;5.45;2.25;;;34.50;97.90;;;;;;5036712;28;20085;-76
2022/09/15 11:23:25;;;;;;;7.38;2.05;;;34.60;97.80;;;;;;5049554;28;20029;-75
2022/09/15 11:26:06;;;;;;;9.95;2.08;;;34.30;98.40;;;;;;5034947;28;20029;-75
2022/09/15 11:28:41;;;;;;;8.82;1.83;;;34.80;97.70;;;;;;5042042;28;20033;-75
2022/09/15 11:31:15;;;;;;;7.82;2.10;;;34.90;97.40;;;;;;5037998;28;20033;-74
2022/09/15 11:33:48;;;;;;;8.85;1.90;;;35.10;96.80;;;;;;5024801;28;20766;-75
2022/09/15 11:36:29;;;;;;;4.57;1.60;;;35.20;96.70;;;;;;5035357;28;20433;-76
2022/09/15 11:39:03;;;;;;;3.50;1.70;;;35.30;96.70;;;;;;5039498;28;20033;-76
2022/09/15 11:41:29;;;;;;;7.82;2.40;;;34.90;97.30;;;;;;5034881;28;20274;-75
2022/09/15 11:44:19;;;;;;;7.95;2.33;;;35.60;97.60;;;;;;5041051;28;20033;-76
2022/09/15 11:46:48;;;;;;;4.95;1.88;;;35.80;97.10;;;;;;5039133;28;20642;-75
2022/09/15 11:49:22;;;;;;;4.38;1.75;;;35.40;97.10;;;;;;5034072;28;20124;-74
2022/09/15 11:52:19;;;;;;;6.03;2.40;;;35.80;97.10;;;;;;5026060;28;20044;-75
2022/09/15 11:55:13;;;;;;;6.93;2.22;;;35.20;97.70;;;;;;5035643;28;20908;-72
2022/09/15 11:58:01;;;;;;;8.85;2.17;;;35.50;97.00;;;;;;5032732;28;20082;-74
2022/09/15 12:00:26;;;;;;;6.10;1.70;;;33.90;97.00;;;;;;5033912;28;20057;-74
2022/09/15 12:02:59;;;;;;;8.63;2.70;;;34.90;97.20;;;;;;5036808;28;20448;-73
2022/09/15 12:05:41;;;;;;;4.68;1.67;;;35.20;97.70;;;;;;5038347;28;20029;-75
2022/09/15 12:08:27;;;;;;;5.30;1.90;;;34.60;97.40;;;;;;5053089;28;20067;-75
2022/09/15 12:10:55;;;;;;;7.45;2.75;;;35.40;97.30;;;;;;5042748;28;20026;-74
2022/09/15 12:13:31;;;;;;;10.43;2.88;;;35.50;97.30;;;;;;5033890;28;20037;-74
2022/09/15 12:16:00;;;;;;;6.47;2.15;;;35.90;97.10;;;;;;5035595;28;20040;-75
2022/09/15 12:18:37;;;;;;;4.83;1.93;;;36.10;96.60;;;;;;5031707;28;20059;-73
2022/09/15 12:21:22;;;;;;;8.18;2.28;;;36.70;95.70;;;;;;5033369;28;20267;-75
2022/09/15 12:24:19;;;;;;;6.03;1.90;;;36.70;95.30;;;;;;5043965;28;20087;-74
2022/09/15 12:26:46;;;;;;;4.78;2.13;;;36.30;94.80;;;;;;5037289;28;20032;-76
2022/09/15 12:29:21;;;;;;;9.48;2.42;;;36.30;95.70;;;;;;5035557;28;20109;-74
2022/09/15 12:31:46;;;;;;;6.32;2.10;;;36.00;95.80;;;;;;5040543;28;20582;-74
2022/09/15 12:34:24;;;;;;;5.63;1.98;;;35.00;96.90;;;;;;5041940;28;20033;-75
2022/09/15 12:37:06;;;;;;;7.47;2.33;;;35.50;96.40;;;;;;5037759;28;20063;-73
2022/09/15 12:39:43;;;;;;;7.45;2.08;;;34.90;96.20;;;;;;5038068;28;20476;-74
2022/09/15 12:42:22;;;;;;;6.60;1.90;;;35.00;96.10;;;;;;5036610;28;20041;-76
2022/09/15 12:45:05;;;;;;;7.05;1.65;;;34.30;95.60;;;;;;5047935;28;20035;-74
2022/09/15 12:47:36;;;;;;;6.55;2.28;;;33.30;97.90;;;;;;5038634;28;20052;-74
2022/09/15 12:50:23;;;;;;;6.65;1.63;;;33.90;97.80;;;;;;5034482;28;20385;-74
2022/09/15 12:52:57;;;;;;;5.32;2.33;;;34.30;96.90;;;;;;5037184;28;20029;-74
2022/09/15 12:55:31;;;;;;;5.45;2.15;;;34.60;97.00;;;;;;5034337;28;20037;-75
2022/09/15 12:58:21;;;;;;;8.95;2.35;;;34.30;97.10;;;;;;5037222;28;20120;-75
2022/09/15 13:00:51;;;;;;;5.75;1.90;;;34.60;97.00;;;;;;5028761;28;20102;-75
2022/09/15 13:03:38;;;;;;;7.32;2.00;;;35.90;96.10;;;;;;5035153;28;20037;-74
2022/09/15 13:06:10;;;;;;;5.38;1.77;;;34.90;96.30;;;;;;5037455;28;20033;-75
2022/09/15 13:08:36;;;;;;;5.07;1.70;;;34.20;96.60;;;;;;5042040;28;20030;-75
2022/09/15 13:11:09;;;;;;;7.20;1.83;;;35.00;96.80;;;;;;5041118;28;20083;-74
2022/09/15 13:13:46;;;;;;;7.85;2.05;;;34.80;96.70;;;;;;5038487;28;20030;-74
2022/09/15 13:16:39;;;;;;;7.40;2.30;;;35.60;96.60;;;;;;5040560;28;20366;-75